Brangus — WDB4516 — position and weather

sailwx.info

Track history (hours):
 
Tides and Currents Weather Stations Pressure Air Temp Water Temp Dewpoint Dewpoint Depression Visibility Wind Speed Wind Dir Waves Ship Positions

Brangus

Owner: Great Lakes Dredge & Dock Company, Oak Brook, IL. More information available from US FCC via Universal Licensing System and Coast Guard Vessel Documentation Center.

Last reported at 2016-May-01 08:20 UTC. Time now 2016-May-02 19:20 UTC.
Position N 40°38' W 073°18'.

; draft 3 m.

MMSI: 366899270.

Date/timePositionNaut miles runAvg speedWind from/ knotsBaromVisibWave heightAir tempDewpointWater temp
2016-May-01 08:20N 40°38' W 073°18'0 0.0
2016-May-01 07:28N 40°38' W 073°18'0 0.0
2016-May-01 06:33N 40°38' W 073°18'0 0.0
2016-May-01 04:27N 40°38' W 073°18'  
2016-Apr-27 23:11N 40°30' W 074°03'33 0.7
2016-Apr-25 20:34N 39°57' W 074°02'6 6.3
2016-Apr-25 19:34N 39°51' W 074°03'6 6.4
2016-Apr-25 18:34N 39°45' W 074°05'5 5.3
2016-Apr-25 17:34N 39°40' W 074°09'0 0.3
2016-Apr-25 16:33N 39°41' W 074°09'0 0.0
2016-Apr-25 15:34N 39°41' W 074°09'2 2.4
2016-Apr-25 14:33N 39°42' W 074°07'5 4.9
2016-Apr-25 13:32N 39°47' W 074°04'9 0.3
2016-Apr-24 01:34N 39°56' W 074°01'7 6.8
2016-Apr-24 00:33N 39°49' W 074°03'4 4.0
2016-Apr-23 23:33N 39°46' W 074°06'1 0.8
2016-Apr-23 22:34N 39°46' W 074°06'6 6.3
2016-Apr-23 21:34N 39°39' W 074°08'7 6.7
2016-Apr-23 20:33N 39°34' W 074°12'2 2.2
2016-Apr-23 19:33N 39°32' W 074°14'0 0.3
2016-Apr-23 18:34N 39°32' W 074°13'0 0.4
2016-Apr-23 17:33N 39°32' W 074°14'1 0.1
2016-Apr-23 08:33N 39°32' W 074°13'5 4.7
2016-Apr-23 07:34N 39°36' W 074°10'5 4.9
2016-Apr-23 06:33N 39°40' W 074°08'4 4.4
2016-Apr-23 05:34N 39°44' W 074°05'2 2.2
2016-Apr-23 04:34N 39°46' W 074°07'0 0.0
2016-Apr-23 03:34N 39°46' W 074°07'0 0.0
2016-Apr-23 02:33N 39°46' W 074°07'0 0.1
2016-Apr-23 00:32N 39°46' W 074°07'1 0.6
2016-Apr-22 23:22N 39°45' W 074°07'0 0.0
2016-Apr-22 22:29N 39°45' W 074°07'0 0.0
2016-Apr-22 20:34N 39°45' W 074°07'0 0.0
2016-Apr-22 19:34N 39°45' W 074°07'0 0.0
2016-Apr-22 18:19N 39°45' W 074°07'0 0.0
2016-Apr-22 17:33N 39°45' W 074°07'0 0.0
2016-Apr-22 16:33N 39°45' W 074°07'0 0.0
2016-Apr-22 15:34N 39°45' W 074°07'0 0.0
2016-Apr-22 14:34N 39°45' W 074°07'1 0.8
2016-Apr-22 13:34N 39°46' W 074°07'0 0.4
2016-Apr-22 12:33N 39°46' W 074°07'0 0.4
2016-Apr-22 11:34N 39°46' W 074°07'0 0.5
2016-Apr-22 10:33N 39°45' W 074°07'0 0.0
2016-Apr-22 09:33N 39°45' W 074°07'0 0.0
2016-Apr-22 08:33N 39°45' W 074°07'0 0.0
2016-Apr-22 07:33N 39°45' W 074°07'0 0.0
2016-Apr-22 06:34N 39°45' W 074°07'0 0.0
2016-Apr-22 05:34N 39°45' W 074°07'0 0.0
2016-Apr-22 04:33N 39°45' W 074°07'0 0.0
2016-Apr-22 03:34N 39°45' W 074°07'0 0.0
2016-Apr-22 02:34N 39°45' W 074°07'0 0.0
2016-Apr-22 01:34N 39°45' W 074°07'0 0.0
2016-Apr-22 00:33N 39°45' W 074°07'0 0.0
2016-Apr-21 23:34N 39°45' W 074°07'0 0.0
2016-Apr-21 22:34N 39°45' W 074°07'0 0.0
2016-Apr-21 21:34N 39°45' W 074°07'5 4.9
2016-Apr-21 20:33N 39°40' W 074°08'7 7.4
2016-Apr-21 19:33N 39°34' W 074°14'0 0.0
2016-Apr-21 18:33N 39°34' W 074°14'0 0.5
2016-Apr-21 17:33N 39°34' W 074°13'0 0.0
2016-Apr-21 16:34N 39°34' W 074°13'0 0.1
2016-Apr-21 15:34N 39°34' W 074°13'0 0.4
2016-Apr-21 14:33N 39°34' W 074°14'0 0.4
2016-Apr-21 13:34N 39°34' W 074°13'0 0.5
2016-Apr-21 12:34N 39°34' W 074°12'3 2.8
2016-Apr-21 11:33N 39°37' W 074°11'8 8.5
2016-Apr-21 10:34N 39°44' W 074°05'1 1.4
2016-Apr-21 09:33N 39°45' W 074°07'0 0.0
2016-Apr-21 08:33N 39°45' W 074°07'  
Track history (hours):
 
Tides and Currents Weather Stations Pressure Air Temp Water Temp Dewpoint Dewpoint Depression Visibility Wind Speed Wind Dir Waves Ship Positions

Brangus

Owner: Great Lakes Dredge & Dock Company, Oak Brook, IL. More information available from US FCC via Universal Licensing System and Coast Guard Vessel Documentation Center.

Last reported at 2016-May-01 08:20 UTC. Time now 2016-May-02 19:20 UTC.
Position N 40°38' W 073°18'.

; draft 3 m.

MMSI: 366899270.

Date/timePositionNaut miles runAvg speedWind from/ knotsBaromVisibWave heightAir tempDewpointWater temp
2016-May-01 08:20N 40°38' W 073°18'0 0.0
2016-May-01 07:28N 40°38' W 073°18'0 0.0
2016-May-01 06:33N 40°38' W 073°18'0 0.0
2016-May-01 04:27N 40°38' W 073°18'  
2016-Apr-27 23:11N 40°30' W 074°03'33 0.7
2016-Apr-25 20:34N 39°57' W 074°02'6 6.3
2016-Apr-25 19:34N 39°51' W 074°03'6 6.4
2016-Apr-25 18:34N 39°45' W 074°05'5 5.3
2016-Apr-25 17:34N 39°40' W 074°09'0 0.3
2016-Apr-25 16:33N 39°41' W 074°09'0 0.0
2016-Apr-25 15:34N 39°41' W 074°09'2 2.4
2016-Apr-25 14:33N 39°42' W 074°07'5 4.9
2016-Apr-25 13:32N 39°47' W 074°04'9 0.3
2016-Apr-24 01:34N 39°56' W 074°01'7 6.8
2016-Apr-24 00:33N 39°49' W 074°03'4 4.0
2016-Apr-23 23:33N 39°46' W 074°06'1 0.8
2016-Apr-23 22:34N 39°46' W 074°06'6 6.3
2016-Apr-23 21:34N 39°39' W 074°08'7 6.7
2016-Apr-23 20:33N 39°34' W 074°12'2 2.2
2016-Apr-23 19:33N 39°32' W 074°14'0 0.3
2016-Apr-23 18:34N 39°32' W 074°13'0 0.4
2016-Apr-23 17:33N 39°32' W 074°14'1 0.1
2016-Apr-23 08:33N 39°32' W 074°13'5 4.7
2016-Apr-23 07:34N 39°36' W 074°10'5 4.9
2016-Apr-23 06:33N 39°40' W 074°08'4 4.4
2016-Apr-23 05:34N 39°44' W 074°05'2 2.2
2016-Apr-23 04:34N 39°46' W 074°07'0 0.0
2016-Apr-23 03:34N 39°46' W 074°07'0 0.0
2016-Apr-23 02:33N 39°46' W 074°07'0 0.1
2016-Apr-23 00:32N 39°46' W 074°07'1 0.6
2016-Apr-22 23:22N 39°45' W 074°07'0 0.0
2016-Apr-22 22:29N 39°45' W 074°07'0 0.0
2016-Apr-22 20:34N 39°45' W 074°07'0 0.0
2016-Apr-22 19:34N 39°45' W 074°07'0 0.0
2016-Apr-22 18:19N 39°45' W 074°07'0 0.0
2016-Apr-22 17:33N 39°45' W 074°07'0 0.0
2016-Apr-22 16:33N 39°45' W 074°07'0 0.0
2016-Apr-22 15:34N 39°45' W 074°07'0 0.0
2016-Apr-22 14:34N 39°45' W 074°07'1 0.8
2016-Apr-22 13:34N 39°46' W 074°07'0 0.4
2016-Apr-22 12:33N 39°46' W 074°07'0 0.4
2016-Apr-22 11:34N 39°46' W 074°07'0 0.5
2016-Apr-22 10:33N 39°45' W 074°07'0 0.0
2016-Apr-22 09:33N 39°45' W 074°07'0 0.0
2016-Apr-22 08:33N 39°45' W 074°07'0 0.0
2016-Apr-22 07:33N 39°45' W 074°07'0 0.0
2016-Apr-22 06:34N 39°45' W 074°07'0 0.0
2016-Apr-22 05:34N 39°45' W 074°07'0 0.0
2016-Apr-22 04:33N 39°45' W 074°07'0 0.0
2016-Apr-22 03:34N 39°45' W 074°07'0 0.0
2016-Apr-22 02:34N 39°45' W 074°07'0 0.0
2016-Apr-22 01:34N 39°45' W 074°07'0 0.0
2016-Apr-22 00:33N 39°45' W 074°07'0 0.0
2016-Apr-21 23:34N 39°45' W 074°07'0 0.0
2016-Apr-21 22:34N 39°45' W 074°07'0 0.0
2016-Apr-21 21:34N 39°45' W 074°07'5 4.9
2016-Apr-21 20:33N 39°40' W 074°08'7 7.4
2016-Apr-21 19:33N 39°34' W 074°14'0 0.0
2016-Apr-21 18:33N 39°34' W 074°14'0 0.5
2016-Apr-21 17:33N 39°34' W 074°13'0 0.0
2016-Apr-21 16:34N 39°34' W 074°13'0 0.1
2016-Apr-21 15:34N 39°34' W 074°13'0 0.4
2016-Apr-21 14:33N 39°34' W 074°14'0 0.4
2016-Apr-21 13:34N 39°34' W 074°13'0 0.5
2016-Apr-21 12:34N 39°34' W 074°12'3 2.8
2016-Apr-21 11:33N 39°37' W 074°11'8 8.5
2016-Apr-21 10:34N 39°44' W 074°05'1 1.4
2016-Apr-21 09:33N 39°45' W 074°07'0 0.0
2016-Apr-21 08:33N 39°45' W 074°07'  

Dump ship's entire track history